Eems Servant — PBTI — position and weather

sailwx.info

Track history (hours):
 
Tides and Currents Weather Stations Pressure Air Temp Water Temp Dewpoint Dewpoint Depression Visibility Wind Speed Wind Dir Waves Ship Positions

Eems Servant

Last reported at 2016-Apr-22 04:28 UTC. Time now 2016-Apr-29 01:57 UTC.
Position N 50°29' W 000°21'.

Length 87 m; draft 4.3 m.

Type: Cargo ship. MMSI: 246236000.

Date/timePositionNaut miles runAvg speedWind from/ knotsBaromVisibWave heightAir tempDewpointWater temp
2016-Apr-22 04:28N 50°29' W 000°21'1010.6
2016-Apr-22 03:32N 50°31' W 000°06'1110.8
2016-Apr-22 02:33N 50°34' E 000°10'48 9.3
2016-Apr-21 21:27N 50°58' E 001°15'1311.1
2016-Apr-21 20:18N 51°06' E 001°31'1012.8
2016-Apr-21 19:33N 51°12' E 001°42'1211.8
2016-Apr-21 18:33N 51°22' E 001°52'1010.2
2016-Apr-21 17:33N 51°31' E 002°01'10 9.1
2016-Apr-21 16:24N 51°39' E 002°12'31 7.9
2016-Apr-21 12:30N 52°02' E 002°45'63 9.1
2016-Apr-21 05:32N 52°31' E 004°17'9 9.2
2016-Apr-21 04:33N 52°28' E 004°31'3 3.1
2016-Apr-21 03:32N 52°28' E 004°36'0 0.0
2016-Apr-21 02:32N 52°28' E 004°36'0 0.0
2016-Apr-21 01:32N 52°28' E 004°36'0 0.0
2016-Apr-21 00:32N 52°28' E 004°36'0 0.0
2016-Apr-20 23:32N 52°28' E 004°36'0 0.0
2016-Apr-20 22:32N 52°28' E 004°36'0 0.0
2016-Apr-20 21:29N 52°28' E 004°36'0 0.0
2016-Apr-20 20:32N 52°28' E 004°36'0 0.0
2016-Apr-20 19:29N 52°28' E 004°36'0 0.0
2016-Apr-20 18:32N 52°28' E 004°36'0 0.0
2016-Apr-20 17:32N 52°28' E 004°36'0 0.0
2016-Apr-20 16:32N 52°28' E 004°36'0 0.0
2016-Apr-20 15:32N 52°28' E 004°36'0 0.0
2016-Apr-20 14:32N 52°28' E 004°36'0 0.0
2016-Apr-20 13:33N 52°28' E 004°36'2 1.9
2016-Apr-20 12:33N 52°28' E 004°33'5 5.0
2016-Apr-20 11:33N 52°29' E 004°25'5 5.2
2016-Apr-20 10:33N 52°29' E 004°17'158 8.7
2016-Apr-19 16:32N 53°32' E 000°17'9 8.9
2016-Apr-19 15:33N 53°35' E 000°03'8 8.2
2016-Apr-19 14:34N 53°38' W 000°10'1 1.3
2016-Apr-19 13:33N 53°38' W 000°12'0 0.0
2016-Apr-19 12:33N 53°38' W 000°12'0 0.0
2016-Apr-19 11:33N 53°38' W 000°12'0 0.0
2016-Apr-19 10:33N 53°38' W 000°12'0 0.0
2016-Apr-19 09:33N 53°38' W 000°12'0 0.0
2016-Apr-19 08:33N 53°38' W 000°12'0 0.0
2016-Apr-19 07:33N 53°38' W 000°12'0 0.0
2016-Apr-19 06:33N 53°38' W 000°12'0 0.0
2016-Apr-19 05:33N 53°38' W 000°12'0 0.0
2016-Apr-19 04:33N 53°38' W 000°12'0 0.3
2016-Apr-19 03:33N 53°38' W 000°11'4 4.0
2016-Apr-19 02:33N 53°37' W 000°05'1010.4
2016-Apr-19 01:33N 53°33' E 000°11'7 6.7
2016-Apr-19 00:28N 53°33' E 000°24'26 3.5
2016-Apr-18 17:07N 53°20' E 001°00'19 6.5
2016-Apr-18 14:09N 53°11' E 001°29'6 9.1
2016-Apr-18 13:27N 53°10' E 001°39'9 9.5
2016-Apr-18 12:30N 53°06' E 001°53'80 8.6
2016-Apr-18 03:11N 52°38' E 003°57'5 8.3
2016-Apr-18 02:33N 52°36' E 004°05'8 8.4
2016-Apr-18 01:34N 52°31' E 004°16'8 8.4
2016-Apr-18 00:34N 52°29' E 004°29'5 4.6
2016-Apr-17 23:33N 52°28' E 004°36'1 0.2
2016-Apr-17 19:31N 52°28' E 004°38'0 0.0
2016-Apr-17 18:31N 52°28' E 004°38'0 0.0
2016-Apr-17 17:31N 52°28' E 004°38'0 0.0
2016-Apr-17 14:31N 52°28' E 004°38'0 0.0
2016-Apr-17 13:31N 52°28' E 004°38'0 0.0
2016-Apr-17 12:31N 52°28' E 004°38'0 0.1
2016-Apr-17 11:31N 52°28' E 004°38'0 0.1
2016-Apr-17 10:31N 52°28' E 004°38'0 0.0
2016-Apr-17 09:31N 52°28' E 004°38'0 0.0
2016-Apr-17 08:31N 52°28' E 004°38'0 0.0
2016-Apr-17 07:31N 52°28' E 004°38'0 0.0
2016-Apr-17 06:31N 52°28' E 004°38'0 0.0
2016-Apr-17 05:31N 52°28' E 004°38'0 0.0
2016-Apr-17 04:31N 52°28' E 004°38'0 0.0
2016-Apr-17 03:31N 52°28' E 004°38'0 0.0
2016-Apr-17 02:31N 52°28' E 004°38'0 0.0
2016-Apr-17 01:33N 52°28' E 004°38'0 0.0
2016-Apr-17 00:33N 52°28' E 004°38'0 0.0
2016-Apr-16 23:30N 52°28' E 004°38'0 0.0
2016-Apr-16 22:33N 52°28' E 004°38'0 0.0
2016-Apr-16 21:33N 52°28' E 004°38'0 0.0
2016-Apr-16 20:33N 52°28' E 004°38'0 0.0
2016-Apr-16 19:33N 52°28' E 004°38'0 0.0
2016-Apr-16 18:33N 52°28' E 004°38'0 0.0
2016-Apr-16 17:33N 52°28' E 004°38'0 0.0
2016-Apr-16 16:33N 52°28' E 004°38'0 0.0
2016-Apr-16 15:33N 52°28' E 004°38'0 0.0
2016-Apr-16 14:33N 52°28' E 004°38'0 0.0
2016-Apr-16 13:33N 52°28' E 004°38'0 0.0
2016-Apr-16 12:33N 52°28' E 004°38'0 0.0
2016-Apr-16 11:33N 52°28' E 004°38'0 0.0
2016-Apr-16 10:33N 52°28' E 004°38'0 0.0
2016-Apr-16 09:33N 52°28' E 004°38'0 0.0
2016-Apr-16 08:33N 52°28' E 004°38'0 0.0
2016-Apr-16 07:33N 52°28' E 004°38'0 0.0
2016-Apr-16 06:33N 52°28' E 004°38'0 0.0
2016-Apr-16 05:33N 52°28' E 004°38'0 0.0
2016-Apr-16 04:33N 52°28' E 004°38'0 0.0
2016-Apr-16 03:33N 52°28' E 004°38'0 0.0
2016-Apr-16 02:33N 52°28' E 004°38'0 0.0
2016-Apr-16 01:33N 52°28' E 004°38'0 0.0
2016-Apr-16 00:33N 52°28' E 004°38'0 0.0
2016-Apr-15 23:33N 52°28' E 004°38'0 0.0
2016-Apr-15 22:33N 52°28' E 004°38'0 0.0
2016-Apr-15 21:30N 52°28' E 004°38'0 0.0
2016-Apr-15 20:33N 52°28' E 004°38'0 0.0
2016-Apr-15 19:33N 52°28' E 004°38'1 1.2
2016-Apr-15 18:33N 52°28' E 004°36'7 6.7
2016-Apr-15 17:33N 52°28' E 004°25'9 8.5
2016-Apr-15 16:33N 52°29' E 004°11'73 9.7
2016-Apr-15 09:05N 52°31' E 002°12'5 9.6
2016-Apr-15 08:33N 52°32' E 002°03'9 9.3
2016-Apr-15 07:33N 52°33' E 001°48'2 1.6
2016-Apr-15 06:32N 52°33' E 001°46'0 0.1
2016-Apr-15 05:32N 52°33' E 001°46'0 0.0
2016-Apr-15 04:32N 52°33' E 001°46'0 0.0
2016-Apr-15 03:32N 52°33' E 001°46'0 0.0
2016-Apr-15 02:32N 52°33' E 001°46'0 0.0
2016-Apr-15 01:32N 52°33' E 001°46'0 0.0
2016-Apr-15 00:32N 52°33' E 001°46'0 0.0
2016-Apr-14 23:32N 52°33' E 001°46'0 0.1
2016-Apr-14 22:32N 52°33' E 001°46'0 0.1
2016-Apr-14 21:32N 52°33' E 001°46'0 0.0
2016-Apr-14 20:32N 52°33' E 001°46'0 0.0
2016-Apr-14 19:32N 52°33' E 001°46'0 0.0
2016-Apr-14 18:32N 52°33' E 001°46'0 0.0
2016-Apr-14 17:32N 52°33' E 001°46'0 0.1
2016-Apr-14 16:32N 52°33' E 001°46'0 0.1
2016-Apr-14 15:32N 52°33' E 001°46'0 0.0
2016-Apr-14 14:32N 52°33' E 001°46'0 0.0
2016-Apr-14 13:32N 52°33' E 001°46'0 0.0
2016-Apr-14 12:32N 52°33' E 001°46'0 0.0
2016-Apr-14 11:32N 52°33' E 001°46'0 0.0
2016-Apr-14 10:29N 52°33' E 001°46'0 0.1
2016-Apr-14 09:32N 52°33' E 001°46'0 0.0
2016-Apr-14 08:32N 52°33' E 001°46'0 0.0
2016-Apr-14 07:32N 52°33' E 001°46'0 0.0
2016-Apr-14 06:32N 52°33' E 001°46'0 0.0
2016-Apr-14 05:32N 52°33' E 001°46'0 0.0
2016-Apr-14 04:32N 52°33' E 001°46'0 0.1
2016-Apr-14 03:32N 52°33' E 001°46'0 0.0
2016-Apr-14 02:29N 52°33' E 001°46'0 0.0
2016-Apr-14 01:29N 52°33' E 001°46'0 0.0
2016-Apr-14 00:32N 52°33' E 001°46'0 0.0
2016-Apr-13 23:32N 52°33' E 001°46'0 0.0
2016-Apr-13 22:32N 52°33' E 001°46'0 0.1
2016-Apr-13 21:32N 52°33' E 001°46'0 0.0
2016-Apr-13 20:32N 52°33' E 001°46'0 0.0
2016-Apr-13 19:32N 52°33' E 001°46'0 0.0
2016-Apr-13 18:32N 52°33' E 001°46'0 0.0
2016-Apr-13 17:32N 52°33' E 001°46'0 0.0
2016-Apr-13 16:32N 52°33' E 001°46'0 0.1
2016-Apr-13 15:32N 52°33' E 001°46'3 2.6
2016-Apr-13 14:33N 52°36' E 001°44'0 0.0
2016-Apr-13 13:33N 52°36' E 001°44'0 0.0
2016-Apr-13 12:33N 52°36' E 001°44'0 0.0
2016-Apr-13 11:33N 52°36' E 001°44'0 0.0
2016-Apr-13 10:33N 52°36' E 001°44'0 0.0
2016-Apr-13 09:33N 52°36' E 001°44'0 0.0
2016-Apr-13 08:33N 52°36' E 001°44'0 0.0
2016-Apr-13 07:33N 52°36' E 001°44'0 0.0
2016-Apr-13 06:33N 52°36' E 001°44'0 0.0
2016-Apr-13 05:33N 52°36' E 001°44'0 0.0
2016-Apr-13 04:33N 52°36' E 001°44'0 0.0
2016-Apr-13 03:33N 52°36' E 001°44'0 0.0
2016-Apr-13 02:30N 52°36' E 001°44'0 0.0
2016-Apr-13 01:33N 52°36' E 001°44'0 0.0
2016-Apr-13 00:33N 52°36' E 001°44'0 0.0
2016-Apr-12 23:33N 52°36' E 001°44'0 0.0
2016-Apr-12 22:33N 52°36' E 001°44'0 0.0
2016-Apr-12 21:33N 52°36' E 001°44'0 0.0
2016-Apr-12 20:33N 52°36' E 001°44'0 0.0
2016-Apr-12 19:33N 52°36' E 001°44'0 0.0
2016-Apr-12 18:33N 52°36' E 001°44'0 0.0
2016-Apr-12 17:33N 52°36' E 001°44'0 0.0
2016-Apr-12 16:33N 52°36' E 001°44'0 0.0
2016-Apr-12 15:33N 52°36' E 001°44'0 0.0
2016-Apr-12 14:33N 52°36' E 001°44'0 0.0
2016-Apr-12 13:33N 52°36' E 001°44'0 0.0
2016-Apr-12 12:33N 52°36' E 001°44'0 0.0
2016-Apr-12 11:33N 52°36' E 001°44'0 0.0
2016-Apr-12 10:33N 52°36' E 001°44'0 0.0
2016-Apr-12 09:33N 52°36' E 001°44'0 0.0
2016-Apr-12 08:33N 52°36' E 001°44'0 0.0
2016-Apr-12 07:33N 52°36' E 001°44'2 2.1
2016-Apr-12 06:33N 52°34' E 001°46'4 4.2
2016-Apr-12 05:33N 52°31' E 001°51'6 5.8
2016-Apr-12 04:33N 52°26' E 001°51'  
Track history (hours):
 
Tides and Currents Weather Stations Pressure Air Temp Water Temp Dewpoint Dewpoint Depression Visibility Wind Speed Wind Dir Waves Ship Positions

Eems Servant

Last reported at 2016-Apr-22 04:28 UTC. Time now 2016-Apr-29 01:57 UTC.
Position N 50°29' W 000°21'.

Length 87 m; draft 4.3 m.

Type: Cargo ship. MMSI: 246236000.

Date/timePositionNaut miles runAvg speedWind from/ knotsBaromVisibWave heightAir tempDewpointWater temp
2016-Apr-22 04:28N 50°29' W 000°21'1010.6
2016-Apr-22 03:32N 50°31' W 000°06'1110.8
2016-Apr-22 02:33N 50°34' E 000°10'48 9.3
2016-Apr-21 21:27N 50°58' E 001°15'1311.1
2016-Apr-21 20:18N 51°06' E 001°31'1012.8
2016-Apr-21 19:33N 51°12' E 001°42'1211.8
2016-Apr-21 18:33N 51°22' E 001°52'1010.2
2016-Apr-21 17:33N 51°31' E 002°01'10 9.1
2016-Apr-21 16:24N 51°39' E 002°12'31 7.9
2016-Apr-21 12:30N 52°02' E 002°45'63 9.1
2016-Apr-21 05:32N 52°31' E 004°17'9 9.2
2016-Apr-21 04:33N 52°28' E 004°31'3 3.1
2016-Apr-21 03:32N 52°28' E 004°36'0 0.0
2016-Apr-21 02:32N 52°28' E 004°36'0 0.0
2016-Apr-21 01:32N 52°28' E 004°36'0 0.0
2016-Apr-21 00:32N 52°28' E 004°36'0 0.0
2016-Apr-20 23:32N 52°28' E 004°36'0 0.0
2016-Apr-20 22:32N 52°28' E 004°36'0 0.0
2016-Apr-20 21:29N 52°28' E 004°36'0 0.0
2016-Apr-20 20:32N 52°28' E 004°36'0 0.0
2016-Apr-20 19:29N 52°28' E 004°36'0 0.0
2016-Apr-20 18:32N 52°28' E 004°36'0 0.0
2016-Apr-20 17:32N 52°28' E 004°36'0 0.0
2016-Apr-20 16:32N 52°28' E 004°36'0 0.0
2016-Apr-20 15:32N 52°28' E 004°36'0 0.0
2016-Apr-20 14:32N 52°28' E 004°36'0 0.0
2016-Apr-20 13:33N 52°28' E 004°36'2 1.9
2016-Apr-20 12:33N 52°28' E 004°33'5 5.0
2016-Apr-20 11:33N 52°29' E 004°25'5 5.2
2016-Apr-20 10:33N 52°29' E 004°17'158 8.7
2016-Apr-19 16:32N 53°32' E 000°17'9 8.9
2016-Apr-19 15:33N 53°35' E 000°03'8 8.2
2016-Apr-19 14:34N 53°38' W 000°10'1 1.3
2016-Apr-19 13:33N 53°38' W 000°12'0 0.0
2016-Apr-19 12:33N 53°38' W 000°12'0 0.0
2016-Apr-19 11:33N 53°38' W 000°12'0 0.0
2016-Apr-19 10:33N 53°38' W 000°12'0 0.0
2016-Apr-19 09:33N 53°38' W 000°12'0 0.0
2016-Apr-19 08:33N 53°38' W 000°12'0 0.0
2016-Apr-19 07:33N 53°38' W 000°12'0 0.0
2016-Apr-19 06:33N 53°38' W 000°12'0 0.0
2016-Apr-19 05:33N 53°38' W 000°12'0 0.0
2016-Apr-19 04:33N 53°38' W 000°12'0 0.3
2016-Apr-19 03:33N 53°38' W 000°11'4 4.0
2016-Apr-19 02:33N 53°37' W 000°05'1010.4
2016-Apr-19 01:33N 53°33' E 000°11'7 6.7
2016-Apr-19 00:28N 53°33' E 000°24'26 3.5
2016-Apr-18 17:07N 53°20' E 001°00'19 6.5
2016-Apr-18 14:09N 53°11' E 001°29'6 9.1
2016-Apr-18 13:27N 53°10' E 001°39'9 9.5
2016-Apr-18 12:30N 53°06' E 001°53'80 8.6
2016-Apr-18 03:11N 52°38' E 003°57'5 8.3
2016-Apr-18 02:33N 52°36' E 004°05'8 8.4
2016-Apr-18 01:34N 52°31' E 004°16'8 8.4
2016-Apr-18 00:34N 52°29' E 004°29'5 4.6
2016-Apr-17 23:33N 52°28' E 004°36'1 0.2
2016-Apr-17 19:31N 52°28' E 004°38'0 0.0
2016-Apr-17 18:31N 52°28' E 004°38'0 0.0
2016-Apr-17 17:31N 52°28' E 004°38'0 0.0
2016-Apr-17 14:31N 52°28' E 004°38'0 0.0
2016-Apr-17 13:31N 52°28' E 004°38'0 0.0
2016-Apr-17 12:31N 52°28' E 004°38'0 0.1
2016-Apr-17 11:31N 52°28' E 004°38'0 0.1
2016-Apr-17 10:31N 52°28' E 004°38'0 0.0
2016-Apr-17 09:31N 52°28' E 004°38'0 0.0
2016-Apr-17 08:31N 52°28' E 004°38'0 0.0
2016-Apr-17 07:31N 52°28' E 004°38'0 0.0
2016-Apr-17 06:31N 52°28' E 004°38'0 0.0
2016-Apr-17 05:31N 52°28' E 004°38'0 0.0
2016-Apr-17 04:31N 52°28' E 004°38'0 0.0
2016-Apr-17 03:31N 52°28' E 004°38'0 0.0
2016-Apr-17 02:31N 52°28' E 004°38'0 0.0
2016-Apr-17 01:33N 52°28' E 004°38'0 0.0
2016-Apr-17 00:33N 52°28' E 004°38'0 0.0
2016-Apr-16 23:30N 52°28' E 004°38'0 0.0
2016-Apr-16 22:33N 52°28' E 004°38'0 0.0
2016-Apr-16 21:33N 52°28' E 004°38'0 0.0
2016-Apr-16 20:33N 52°28' E 004°38'0 0.0
2016-Apr-16 19:33N 52°28' E 004°38'0 0.0
2016-Apr-16 18:33N 52°28' E 004°38'0 0.0
2016-Apr-16 17:33N 52°28' E 004°38'0 0.0
2016-Apr-16 16:33N 52°28' E 004°38'0 0.0
2016-Apr-16 15:33N 52°28' E 004°38'0 0.0
2016-Apr-16 14:33N 52°28' E 004°38'0 0.0
2016-Apr-16 13:33N 52°28' E 004°38'0 0.0
2016-Apr-16 12:33N 52°28' E 004°38'0 0.0
2016-Apr-16 11:33N 52°28' E 004°38'0 0.0
2016-Apr-16 10:33N 52°28' E 004°38'0 0.0
2016-Apr-16 09:33N 52°28' E 004°38'0 0.0
2016-Apr-16 08:33N 52°28' E 004°38'0 0.0
2016-Apr-16 07:33N 52°28' E 004°38'0 0.0
2016-Apr-16 06:33N 52°28' E 004°38'0 0.0
2016-Apr-16 05:33N 52°28' E 004°38'0 0.0
2016-Apr-16 04:33N 52°28' E 004°38'0 0.0
2016-Apr-16 03:33N 52°28' E 004°38'0 0.0
2016-Apr-16 02:33N 52°28' E 004°38'0 0.0
2016-Apr-16 01:33N 52°28' E 004°38'0 0.0
2016-Apr-16 00:33N 52°28' E 004°38'0 0.0
2016-Apr-15 23:33N 52°28' E 004°38'0 0.0
2016-Apr-15 22:33N 52°28' E 004°38'0 0.0
2016-Apr-15 21:30N 52°28' E 004°38'0 0.0
2016-Apr-15 20:33N 52°28' E 004°38'0 0.0
2016-Apr-15 19:33N 52°28' E 004°38'1 1.2
2016-Apr-15 18:33N 52°28' E 004°36'7 6.7
2016-Apr-15 17:33N 52°28' E 004°25'9 8.5
2016-Apr-15 16:33N 52°29' E 004°11'73 9.7
2016-Apr-15 09:05N 52°31' E 002°12'5 9.6
2016-Apr-15 08:33N 52°32' E 002°03'9 9.3
2016-Apr-15 07:33N 52°33' E 001°48'2 1.6
2016-Apr-15 06:32N 52°33' E 001°46'0 0.1
2016-Apr-15 05:32N 52°33' E 001°46'0 0.0
2016-Apr-15 04:32N 52°33' E 001°46'0 0.0
2016-Apr-15 03:32N 52°33' E 001°46'0 0.0
2016-Apr-15 02:32N 52°33' E 001°46'0 0.0
2016-Apr-15 01:32N 52°33' E 001°46'0 0.0
2016-Apr-15 00:32N 52°33' E 001°46'0 0.0
2016-Apr-14 23:32N 52°33' E 001°46'0 0.1
2016-Apr-14 22:32N 52°33' E 001°46'0 0.1
2016-Apr-14 21:32N 52°33' E 001°46'0 0.0
2016-Apr-14 20:32N 52°33' E 001°46'0 0.0
2016-Apr-14 19:32N 52°33' E 001°46'0 0.0
2016-Apr-14 18:32N 52°33' E 001°46'0 0.0
2016-Apr-14 17:32N 52°33' E 001°46'0 0.1
2016-Apr-14 16:32N 52°33' E 001°46'0 0.1
2016-Apr-14 15:32N 52°33' E 001°46'0 0.0
2016-Apr-14 14:32N 52°33' E 001°46'0 0.0
2016-Apr-14 13:32N 52°33' E 001°46'0 0.0
2016-Apr-14 12:32N 52°33' E 001°46'0 0.0
2016-Apr-14 11:32N 52°33' E 001°46'0 0.0
2016-Apr-14 10:29N 52°33' E 001°46'0 0.1
2016-Apr-14 09:32N 52°33' E 001°46'0 0.0
2016-Apr-14 08:32N 52°33' E 001°46'0 0.0
2016-Apr-14 07:32N 52°33' E 001°46'0 0.0
2016-Apr-14 06:32N 52°33' E 001°46'0 0.0
2016-Apr-14 05:32N 52°33' E 001°46'0 0.0
2016-Apr-14 04:32N 52°33' E 001°46'0 0.1
2016-Apr-14 03:32N 52°33' E 001°46'0 0.0
2016-Apr-14 02:29N 52°33' E 001°46'0 0.0
2016-Apr-14 01:29N 52°33' E 001°46'0 0.0
2016-Apr-14 00:32N 52°33' E 001°46'0 0.0
2016-Apr-13 23:32N 52°33' E 001°46'0 0.0
2016-Apr-13 22:32N 52°33' E 001°46'0 0.1
2016-Apr-13 21:32N 52°33' E 001°46'0 0.0
2016-Apr-13 20:32N 52°33' E 001°46'0 0.0
2016-Apr-13 19:32N 52°33' E 001°46'0 0.0
2016-Apr-13 18:32N 52°33' E 001°46'0 0.0
2016-Apr-13 17:32N 52°33' E 001°46'0 0.0
2016-Apr-13 16:32N 52°33' E 001°46'0 0.1
2016-Apr-13 15:32N 52°33' E 001°46'3 2.6
2016-Apr-13 14:33N 52°36' E 001°44'0 0.0
2016-Apr-13 13:33N 52°36' E 001°44'0 0.0
2016-Apr-13 12:33N 52°36' E 001°44'0 0.0
2016-Apr-13 11:33N 52°36' E 001°44'0 0.0
2016-Apr-13 10:33N 52°36' E 001°44'0 0.0
2016-Apr-13 09:33N 52°36' E 001°44'0 0.0
2016-Apr-13 08:33N 52°36' E 001°44'0 0.0
2016-Apr-13 07:33N 52°36' E 001°44'0 0.0
2016-Apr-13 06:33N 52°36' E 001°44'0 0.0
2016-Apr-13 05:33N 52°36' E 001°44'0 0.0
2016-Apr-13 04:33N 52°36' E 001°44'0 0.0
2016-Apr-13 03:33N 52°36' E 001°44'0 0.0
2016-Apr-13 02:30N 52°36' E 001°44'0 0.0
2016-Apr-13 01:33N 52°36' E 001°44'0 0.0
2016-Apr-13 00:33N 52°36' E 001°44'0 0.0
2016-Apr-12 23:33N 52°36' E 001°44'0 0.0
2016-Apr-12 22:33N 52°36' E 001°44'0 0.0
2016-Apr-12 21:33N 52°36' E 001°44'0 0.0
2016-Apr-12 20:33N 52°36' E 001°44'0 0.0
2016-Apr-12 19:33N 52°36' E 001°44'0 0.0
2016-Apr-12 18:33N 52°36' E 001°44'0 0.0
2016-Apr-12 17:33N 52°36' E 001°44'0 0.0
2016-Apr-12 16:33N 52°36' E 001°44'0 0.0
2016-Apr-12 15:33N 52°36' E 001°44'0 0.0
2016-Apr-12 14:33N 52°36' E 001°44'0 0.0
2016-Apr-12 13:33N 52°36' E 001°44'0 0.0
2016-Apr-12 12:33N 52°36' E 001°44'0 0.0
2016-Apr-12 11:33N 52°36' E 001°44'0 0.0
2016-Apr-12 10:33N 52°36' E 001°44'0 0.0
2016-Apr-12 09:33N 52°36' E 001°44'0 0.0
2016-Apr-12 08:33N 52°36' E 001°44'0 0.0
2016-Apr-12 07:33N 52°36' E 001°44'2 2.1
2016-Apr-12 06:33N 52°34' E 001°46'4 4.2
2016-Apr-12 05:33N 52°31' E 001°51'6 5.8
2016-Apr-12 04:33N 52°26' E 001°51'  

Dump ship's entire track history